createdAt,value
2023-05-20T00:01:32.987Z,7.77
2023-05-20T00:03:59.827Z,11.33
2023-05-20T00:06:26.587Z,8.30
2023-05-20T00:08:53.237Z,7.87
2023-05-20T00:11:19.832Z,8.63
2023-05-20T00:13:47.503Z,8.97
2023-05-20T00:16:14.188Z,8.23
2023-05-20T00:18:40.784Z,8.40
2023-05-20T00:21:07.320Z,8.47
2023-05-20T00:23:33.939Z,8.13
2023-05-20T00:26:01.033Z,9.60
2023-05-20T00:28:27.671Z,8.73
2023-05-20T00:30:55.009Z,8.37
2023-05-20T00:33:21.576Z,9.67
2023-05-20T00:35:48.180Z,14.50
2023-05-20T00:38:14.744Z,8.77
2023-05-20T00:40:41.317Z,14.80
2023-05-20T00:43:08.030Z,8.80
2023-05-20T00:45:35.110Z,9.83
2023-05-20T00:48:04.023Z,8.43
2023-05-20T00:50:31.776Z,10.47
2023-05-20T00:52:58.731Z,10.13
2023-05-20T00:55:26.131Z,9.13
2023-05-20T00:57:53.708Z,11.97
2023-05-20T01:00:20.436Z,15.43
2023-05-20T01:02:47.200Z,10.00
2023-05-20T01:05:13.828Z,12.93
2023-05-20T01:07:40.880Z,9.27
2023-05-20T01:10:08.173Z,9.03
2023-05-20T01:12:42.492Z,11.17
2023-05-20T01:15:11.580Z,12.57
2023-05-20T01:17:45.266Z,9.60
2023-05-20T01:20:13.339Z,9.27
2023-05-20T01:22:56.869Z,9.80
2023-05-20T01:25:25.033Z,10.23
2023-05-20T01:27:55.385Z,10.23
2023-05-20T01:30:22.525Z,13.10
2023-05-20T01:32:54.950Z,9.00
2023-05-20T01:35:22.961Z,9.50
2023-05-20T01:37:52.156Z,10.47
2023-05-20T01:40:19.383Z,9.60
2023-05-20T01:42:52.629Z,16.17
2023-05-20T01:45:20.105Z,9.27
2023-05-20T01:47:46.866Z,11.43
2023-05-20T01:50:13.473Z,8.90
2023-05-20T01:52:40.044Z,10.00
2023-05-20T01:55:06.850Z,9.80
2023-05-20T01:57:33.506Z,10.13
2023-05-20T02:00:00.179Z,9.80
2023-05-20T02:02:26.841Z,9.80
2023-05-20T02:04:54.416Z,10.97
2023-05-20T02:07:21.216Z,13.00
2023-05-20T02:09:48.066Z,10.43
2023-05-20T02:12:17.607Z,10.90
2023-05-20T02:14:45.916Z,10.97
2023-05-20T02:17:16.102Z,11.43
2023-05-20T02:19:43.699Z,11.63
2023-05-20T02:22:10.599Z,10.03
2023-05-20T02:24:37.245Z,10.87
2023-05-20T02:27:04.604Z,10.00
2023-05-20T02:29:31.210Z,11.87
2023-05-20T02:31:58.426Z,10.83
2023-05-20T02:34:26.112Z,11.67
2023-05-20T02:36:52.958Z,10.33
2023-05-20T02:39:19.854Z,11.17
2023-05-20T02:41:46.641Z,11.70
2023-05-20T02:44:13.217Z,10.80
2023-05-20T02:46:39.864Z,12.10
2023-05-20T02:49:07.023Z,12.93
2023-05-20T02:51:33.572Z,11.17
2023-05-20T02:54:00.261Z,13.57
2023-05-20T02:56:26.998Z,13.37
2023-05-20T02:58:53.561Z,11.97
2023-05-20T03:01:20.136Z,10.53
2023-05-20T03:03:46.757Z,10.33
2023-05-20T03:06:13.323Z,11.70
2023-05-20T03:08:40.006Z,10.40
2023-05-20T03:11:06.888Z,10.60
2023-05-20T03:13:34.842Z,12.00
2023-05-20T03:16:01.605Z,11.80
2023-05-20T03:18:28.309Z,11.03
2023-05-20T03:20:54.881Z,10.63
2023-05-20T03:23:21.425Z,12.23
2023-05-20T03:25:48.607Z,10.67
2023-05-20T03:28:15.326Z,11.90
2023-05-20T03:30:42.028Z,11.60
2023-05-20T03:33:08.566Z,12.73
2023-05-20T03:35:35.437Z,10.90
2023-05-20T03:38:02.259Z,11.20
2023-05-20T03:40:28.849Z,10.97
2023-05-20T03:42:55.529Z,13.33
2023-05-20T03:45:22.154Z,10.83
2023-05-20T03:47:49.225Z,12.53
2023-05-20T03:50:15.952Z,11.37
2023-05-20T03:52:42.523Z,10.80
2023-05-20T03:55:09.624Z,12.23
2023-05-20T03:57:36.557Z,11.23
2023-05-20T04:00:10.029Z,12.53
2023-05-20T04:02:36.963Z,10.87
2023-05-20T04:05:04.089Z,12.03
2023-05-20T04:07:30.698Z,23.10
2023-05-20T04:09:58.716Z,10.83
2023-05-20T04:12:30.344Z,12.10
2023-05-20T04:15:03.313Z,10.80
2023-05-20T04:17:31.094Z,14.10
2023-05-20T04:19:59.621Z,14.63
2023-05-20T04:22:27.085Z,14.30
2023-05-20T04:24:53.732Z,19.47
2023-05-20T04:27:21.348Z,12.27
2023-05-20T04:29:47.896Z,11.17
2023-05-20T04:32:18.469Z,11.77
2023-05-20T04:34:45.819Z,11.47
2023-05-20T04:37:13.257Z,10.80
2023-05-20T04:39:40.106Z,12.43
2023-05-20T04:42:06.742Z,12.80
2023-05-20T04:44:33.394Z,9.80
2023-05-20T04:47:00.274Z,9.87
2023-05-20T04:49:26.932Z,9.47
2023-05-20T04:51:55.256Z,13.57
2023-05-20T04:54:22.171Z,9.33
2023-05-20T04:56:48.820Z,12.13
2023-05-20T04:59:15.692Z,12.63
2023-05-20T05:01:42.529Z,9.93
2023-05-20T05:04:09.201Z,8.60
2023-05-20T05:06:36.132Z,10.73
2023-05-20T05:09:02.812Z,9.37
2023-05-20T05:11:29.402Z,11.47
2023-05-20T05:13:56.554Z,10.60
2023-05-20T05:16:23.142Z,8.57
2023-05-20T05:18:49.743Z,11.60
2023-05-20T05:21:16.577Z,8.73
2023-05-20T05:23:43.199Z,9.40
2023-05-20T05:26:09.751Z,10.43
2023-05-20T05:28:36.337Z,8.83
2023-05-20T05:31:02.903Z,8.77
2023-05-20T05:33:31.189Z,8.80
2023-05-20T05:35:59.114Z,9.77
2023-05-20T05:38:26.021Z,11.93
2023-05-20T05:40:53.131Z,8.67
2023-05-20T05:43:19.715Z,11.70
2023-05-20T05:45:46.291Z,8.40
2023-05-20T05:48:12.916Z,9.43
2023-05-20T05:50:39.595Z,8.07
2023-05-20T05:53:06.148Z,8.13
2023-05-20T05:55:33.560Z,8.47
2023-05-20T05:58:00.305Z,8.33
2023-05-20T06:00:26.832Z,9.43
2023-05-20T06:02:53.742Z,9.97
2023-05-20T06:05:20.501Z,9.67
2023-05-20T06:07:47.090Z,10.47
2023-05-20T06:10:13.924Z,8.37
2023-05-20T06:12:40.676Z,8.40
2023-05-20T06:15:07.976Z,9.50
2023-05-20T06:17:34.633Z,10.23
2023-05-20T06:20:01.244Z,7.73
2023-05-20T06:22:27.788Z,7.73
2023-05-20T06:24:56.392Z,9.50
2023-05-20T06:27:23.006Z,8.83
2023-05-20T06:29:49.611Z,12.53
2023-05-20T06:32:17.138Z,7.67
2023-05-20T06:34:43.897Z,11.17
2023-05-20T06:37:11.285Z,8.00
2023-05-20T06:39:38.247Z,8.43
2023-05-20T06:42:05.008Z,10.73
2023-05-20T06:44:31.591Z,10.30
2023-05-20T06:46:58.156Z,7.63
2023-05-20T06:49:24.997Z,8.77
2023-05-20T06:51:51.582Z,6.57
2023-05-20T06:54:18.170Z,5.77
2023-05-20T06:56:45.178Z,8.37
2023-05-20T06:59:11.783Z,6.47
2023-05-20T07:01:38.389Z,7.53
2023-05-20T07:04:05.106Z,5.67
2023-05-20T07:06:31.949Z,6.30
2023-05-20T07:08:58.664Z,5.85
2023-05-20T07:11:25.768Z,10.68
2023-05-20T07:13:53.374Z,4.63
2023-05-20T07:16:19.987Z,6.40
2023-05-20T07:18:46.628Z,7.60
2023-05-20T07:21:13.197Z,8.40
2023-05-20T07:23:39.789Z,8.63
2023-05-20T07:26:06.355Z,6.53
2023-05-20T07:28:32.925Z,6.90
2023-05-20T07:31:00.202Z,5.60
2023-05-20T07:33:26.836Z,5.55
2023-05-20T07:35:54.721Z,5.03
2023-05-20T07:38:21.364Z,6.55
2023-05-20T07:40:47.930Z,7.07
2023-05-20T07:43:15.067Z,7.47
2023-05-20T07:45:42.211Z,6.40
2023-05-20T07:48:09.067Z,7.45
2023-05-20T07:50:36.371Z,5.15
2023-05-20T07:53:02.963Z,6.90
2023-05-20T07:55:29.603Z,6.15
2023-05-20T07:57:56.180Z,5.43
2023-05-20T08:00:23.102Z,4.97
2023-05-20T08:02:49.979Z,6.25
2023-05-20T08:05:16.780Z,4.60
2023-05-20T08:07:43.502Z,6.10
2023-05-20T08:10:10.413Z,5.60
2023-05-20T08:12:37.245Z,14.98
2023-05-20T08:15:04.473Z,4.82
2023-05-20T08:17:31.123Z,5.32
2023-05-20T08:19:57.671Z,6.65
2023-05-20T08:22:24.250Z,5.20
2023-05-20T08:24:51.066Z,4.75
2023-05-20T08:27:17.626Z,5.07
2023-05-20T08:29:45.309Z,8.55
2023-05-20T08:32:12.088Z,6.10
2023-05-20T08:34:38.838Z,5.15
2023-05-20T08:37:05.660Z,12.00
2023-05-20T08:39:32.283Z,4.85
2023-05-20T08:41:58.964Z,5.38
2023-05-20T08:44:27.831Z,7.43
2023-05-20T08:46:57.476Z,5.15
2023-05-20T08:49:24.234Z,5.10
2023-05-20T08:51:51.033Z,6.45
2023-05-20T08:54:19.068Z,4.22
2023-05-20T08:56:45.816Z,4.68
2023-05-20T08:59:12.470Z,7.57
2023-05-20T09:01:45.478Z,4.97
2023-05-20T09:04:12.515Z,5.05
2023-05-20T09:06:46.866Z,6.32
2023-05-20T09:09:14.321Z,6.32
2023-05-20T09:11:41.858Z,6.78
2023-05-20T09:14:09.018Z,4.32
2023-05-20T09:16:36.077Z,4.90
2023-05-20T09:19:05.955Z,6.55
2023-05-20T09:21:32.934Z,6.10
2023-05-20T09:24:02.209Z,6.18
2023-05-20T09:26:29.916Z,6.40
2023-05-20T09:28:57.792Z,8.00
2023-05-20T09:31:35.611Z,4.22
2023-05-20T09:34:02.740Z,7.55
2023-05-20T09:36:31.648Z,6.38
2023-05-20T09:39:03.217Z,4.82
2023-05-20T09:41:47.801Z,6.97
2023-05-20T09:44:16.281Z,4.45
2023-05-20T09:46:44.570Z,7.78
2023-05-20T09:49:13.016Z,6.32
2023-05-20T09:51:41.787Z,8.90
2023-05-20T09:54:11.285Z,6.38
2023-05-20T09:56:39.744Z,4.63
2023-05-20T09:59:06.835Z,5.63
2023-05-20T10:01:33.465Z,5.32
2023-05-20T10:04:01.509Z,6.80
2023-05-20T10:06:40.113Z,5.40
2023-05-20T10:09:16.975Z,6.20
2023-05-20T10:11:57.738Z,4.88
2023-05-20T10:14:54.561Z,4.80
2023-05-20T10:17:47.204Z,9.10
2023-05-20T10:20:13.950Z,4.97
2023-05-20T10:22:41.112Z,5.45
2023-05-20T10:25:23.267Z,6.55
2023-05-20T10:27:49.831Z,5.07
2023-05-20T10:30:18.207Z,5.10
2023-05-20T10:32:57.370Z,5.20
2023-05-20T10:35:28.443Z,7.45
2023-05-20T10:38:07.268Z,6.40
2023-05-20T10:40:34.069Z,5.97
2023-05-20T10:43:13.352Z,6.68
2023-05-20T10:45:50.899Z,4.85
2023-05-20T10:48:21.343Z,5.32
2023-05-20T10:50:48.565Z,5.38
2023-05-20T10:53:29.263Z,8.02
2023-05-20T10:55:59.225Z,4.93
2023-05-20T10:58:25.834Z,5.88
2023-05-20T11:00:55.084Z,4.95
2023-05-20T11:03:25.875Z,8.18
2023-05-20T11:05:52.502Z,5.90
2023-05-20T11:08:27.819Z,5.28
2023-05-20T11:10:57.794Z,9.18
2023-05-20T11:13:25.640Z,5.20
2023-05-20T11:15:52.524Z,7.45
2023-05-20T11:18:19.441Z,5.28
2023-05-20T11:20:47.199Z,5.00
2023-05-20T11:23:14.984Z,5.93
2023-05-20T11:25:41.917Z,4.53
2023-05-20T11:28:12.787Z,8.13
2023-05-20T11:30:39.827Z,5.50
2023-05-20T11:33:06.585Z,5.13
2023-05-20T11:35:33.505Z,6.40
2023-05-20T11:38:04.750Z,7.43
2023-05-20T11:40:39.031Z,4.93
2023-05-20T11:43:14.763Z,5.93
2023-05-20T11:45:45.909Z,7.70
2023-05-20T11:48:14.405Z,6.07
2023-05-20T11:50:46.158Z,5.55
2023-05-20T11:53:20.021Z,6.18
2023-05-20T11:55:58.167Z,6.15
2023-05-20T11:58:29.058Z,5.65
2023-05-20T12:01:05.191Z,6.13
2023-05-20T12:03:43.441Z,6.88
2023-05-20T12:06:12.510Z,5.75
2023-05-20T12:08:39.093Z,5.80
2023-05-20T12:11:06.031Z,6.97
2023-05-20T12:13:34.971Z,5.88
2023-05-20T12:16:02.174Z,7.88
2023-05-20T12:18:28.810Z,8.18
2023-05-20T12:20:55.448Z,8.07
2023-05-20T12:23:22.020Z,14.57
2023-05-20T12:25:50.092Z,9.43
2023-05-20T12:28:17.580Z,7.78
2023-05-20T12:30:44.192Z,6.10
2023-05-20T12:33:10.745Z,6.13
2023-05-20T12:35:40.198Z,7.93
2023-05-20T12:38:07.323Z,6.22
2023-05-20T12:40:34.965Z,7.38
2023-05-20T12:43:03.059Z,10.43
2023-05-20T12:45:29.958Z,5.65
2023-05-20T12:47:57.448Z,6.68
2023-05-20T12:50:25.286Z,10.93
2023-05-20T12:52:51.958Z,6.85
2023-05-20T12:55:18.770Z,6.55
2023-05-20T12:57:46.502Z,6.85
2023-05-20T13:00:14.057Z,7.20
2023-05-20T13:02:42.053Z,5.75
2023-05-20T13:05:09.892Z,6.47
2023-05-20T13:07:36.762Z,6.70
2023-05-20T13:10:03.633Z,7.40
2023-05-20T13:12:30.291Z,5.80
2023-05-20T13:14:56.864Z,8.10
2023-05-20T13:17:23.451Z,8.77
2023-05-20T13:19:50.315Z,6.30
2023-05-20T13:22:17.063Z,8.07
2023-05-20T13:24:43.649Z,5.75
2023-05-20T13:27:10.875Z,16.50
2023-05-20T13:29:37.493Z,9.20
2023-05-20T13:32:04.688Z,6.03
2023-05-20T13:34:31.692Z,9.32
2023-05-20T13:36:58.284Z,5.88
2023-05-20T13:39:24.998Z,6.05
2023-05-20T13:41:53.398Z,6.55
2023-05-20T13:44:20.117Z,7.07
2023-05-20T13:46:46.880Z,8.48
2023-05-20T13:49:13.641Z,7.90
2023-05-20T13:51:40.211Z,6.63
2023-05-20T13:54:06.838Z,6.60
2023-05-20T13:56:33.879Z,6.25
2023-05-20T13:59:01.262Z,10.82
2023-05-20T14:01:30.336Z,10.00
2023-05-20T14:03:59.912Z,8.00
2023-05-20T14:06:29.230Z,6.13
2023-05-20T14:08:57.218Z,7.68
2023-05-20T14:11:23.935Z,6.95
2023-05-20T14:13:50.579Z,6.10
2023-05-20T14:16:17.253Z,9.82
2023-05-20T14:18:44.002Z,6.22
2023-05-20T14:21:11.917Z,8.07
2023-05-20T14:23:40.971Z,7.50
2023-05-20T14:26:08.060Z,6.75
2023-05-20T14:28:34.674Z,6.25
2023-05-20T14:31:01.395Z,7.03
2023-05-20T14:33:28.011Z,8.48
2023-05-20T14:35:54.616Z,8.73
2023-05-20T14:38:21.676Z,6.75
2023-05-20T14:40:48.236Z,6.70
2023-05-20T14:43:14.829Z,6.43
2023-05-20T14:45:41.396Z,7.68
2023-05-20T14:48:08.061Z,7.72
2023-05-20T14:50:34.899Z,7.53
2023-05-20T14:53:01.609Z,7.28
2023-05-20T14:55:28.402Z,7.05
2023-05-20T14:57:55.022Z,9.40
2023-05-20T15:00:21.887Z,6.57
2023-05-20T15:02:48.555Z,6.50
2023-05-20T15:05:15.409Z,6.00
2023-05-20T15:07:41.992Z,8.65
2023-05-20T15:10:09.000Z,5.40
2023-05-20T15:12:35.599Z,6.20
2023-05-20T15:15:02.356Z,6.83
2023-05-20T15:17:28.929Z,7.88
2023-05-20T15:19:55.796Z,9.27
2023-05-20T15:22:22.421Z,6.53
2023-05-20T15:24:48.983Z,5.83
2023-05-20T15:27:15.550Z,6.00
2023-05-20T15:29:42.100Z,7.00
2023-05-20T15:32:08.758Z,9.23
2023-05-20T15:34:35.357Z,5.60
2023-05-20T15:37:01.984Z,6.30
2023-05-20T15:39:28.708Z,6.20
2023-05-20T15:41:55.948Z,5.80
2023-05-20T15:44:22.725Z,11.47
2023-05-20T15:46:49.563Z,6.80
2023-05-20T15:49:16.325Z,8.23
2023-05-20T15:51:52.334Z,5.70
2023-05-20T15:54:26.109Z,8.43
2023-05-20T15:56:52.702Z,5.60
2023-05-20T15:59:19.283Z,6.67
2023-05-20T16:01:45.924Z,6.63
2023-05-20T16:04:12.743Z,6.23
2023-05-20T16:06:39.373Z,6.60
2023-05-20T16:09:06.024Z,8.33
2023-05-20T16:11:32.569Z,6.27
2023-05-20T16:13:59.274Z,5.87
2023-05-20T16:16:26.483Z,5.73
2023-05-20T16:18:53.364Z,6.00
2023-05-20T16:21:20.419Z,7.53
2023-05-20T16:23:47.051Z,9.83
2023-05-20T16:26:14.164Z,6.10
2023-05-20T16:28:40.910Z,7.10
2023-05-20T16:31:07.732Z,8.30
2023-05-20T16:33:34.341Z,6.37
2023-05-20T16:36:04.158Z,5.77
2023-05-20T16:38:32.177Z,15.10
2023-05-20T16:40:58.742Z,5.83
2023-05-20T16:43:25.520Z,5.43
2023-05-20T16:45:52.983Z,5.67
2023-05-20T16:48:19.589Z,9.40
2023-05-20T16:50:46.519Z,6.10
2023-05-20T16:53:14.464Z,7.17
2023-05-20T16:55:42.930Z,5.90
2023-05-20T16:58:09.566Z,6.53
2023-05-20T17:00:36.311Z,6.53
2023-05-20T17:03:03.091Z,9.03
2023-05-20T17:05:29.731Z,6.47
2023-05-20T17:07:59.726Z,7.17
2023-05-20T17:10:28.315Z,6.20
2023-05-20T17:12:54.908Z,5.57
2023-05-20T17:15:23.071Z,6.10
2023-05-20T17:17:49.946Z,6.60
2023-05-20T17:20:16.674Z,6.80
2023-05-20T17:22:43.312Z,10.23
2023-05-20T17:25:10.268Z,6.97
2023-05-20T17:27:37.049Z,7.23
2023-05-20T17:30:03.864Z,6.43
2023-05-20T17:32:30.693Z,6.33
2023-05-20T17:34:57.341Z,6.57
2023-05-20T17:37:23.939Z,8.67
2023-05-20T17:39:50.674Z,6.37
2023-05-20T17:42:17.328Z,10.27
2023-05-20T17:44:44.048Z,6.67
2023-05-20T17:47:10.819Z,7.10
2023-05-20T17:49:37.510Z,7.80
2023-05-20T17:52:04.300Z,7.97
2023-05-20T17:54:30.901Z,6.63
2023-05-20T17:56:57.449Z,6.50
2023-05-20T17:59:24.022Z,7.43
2023-05-20T18:01:51.005Z,7.37
2023-05-20T18:04:17.681Z,9.40
2023-05-20T18:06:44.510Z,9.70
2023-05-20T18:09:11.276Z,7.23
2023-05-20T18:11:38.964Z,7.10
2023-05-20T18:14:05.584Z,7.27
2023-05-20T18:16:32.330Z,6.73
2023-05-20T18:18:59.075Z,7.30
2023-05-20T18:21:26.567Z,7.50
2023-05-20T18:23:53.340Z,7.47
2023-05-20T18:26:20.330Z,13.40
2023-05-20T18:28:46.941Z,6.73
2023-05-20T18:31:13.532Z,12.50
2023-05-20T18:33:40.973Z,7.57
2023-05-20T18:36:07.806Z,8.63
2023-05-20T18:38:34.427Z,9.70
2023-05-20T18:41:01.827Z,7.60
2023-05-20T18:43:28.474Z,9.07
2023-05-20T18:45:55.248Z,9.13
2023-05-20T18:48:26.681Z,7.90
2023-05-20T18:50:54.831Z,8.10
2023-05-20T18:53:21.643Z,8.00
2023-05-20T18:55:48.537Z,11.17
2023-05-20T18:58:15.542Z,8.57
2023-05-20T19:00:42.358Z,8.57
2023-05-20T19:03:09.046Z,7.60
2023-05-20T19:05:36.243Z,8.20
2023-05-20T19:08:05.523Z,7.47
2023-05-20T19:10:32.666Z,10.77
2023-05-20T19:12:59.647Z,8.17
2023-05-20T19:15:26.674Z,7.87
2023-05-20T19:17:53.490Z,8.87
2023-05-20T19:20:20.376Z,8.43
2023-05-20T19:22:47.200Z,9.30
2023-05-20T19:25:14.151Z,9.27
2023-05-20T19:27:41.173Z,7.80
2023-05-20T19:30:10.745Z,9.27
2023-05-20T19:32:38.105Z,7.87
2023-05-20T19:35:05.979Z,8.10
2023-05-20T19:37:32.811Z,8.37
2023-05-20T19:39:59.427Z,7.67
2023-05-20T19:42:26.204Z,8.60
2023-05-20T19:44:53.986Z,9.30
2023-05-20T19:47:21.172Z,11.03
2023-05-20T19:49:48.006Z,7.93
2023-05-20T19:52:14.615Z,14.00
2023-05-20T19:54:42.490Z,8.17
2023-05-20T19:57:09.259Z,11.07
2023-05-20T19:59:37.661Z,8.90
2023-05-20T20:02:05.790Z,9.77
2023-05-20T20:04:32.467Z,12.83
2023-05-20T20:06:59.073Z,8.70
2023-05-20T20:09:25.772Z,10.23
2023-05-20T20:11:52.385Z,11.00
2023-05-20T20:14:19.735Z,9.10
2023-05-20T20:16:48.700Z,9.20
2023-05-20T20:19:22.854Z,9.30
2023-05-20T20:21:52.881Z,9.90
2023-05-20T20:24:19.876Z,9.10
2023-05-20T20:26:47.391Z,9.70
2023-05-20T20:29:14.760Z,9.43
2023-05-20T20:31:41.512Z,10.10
2023-05-20T20:34:08.164Z,11.13
2023-05-20T20:36:34.807Z,9.87
2023-05-20T20:39:04.557Z,10.33
2023-05-20T20:41:32.020Z,9.73
2023-05-20T20:43:59.817Z,10.40
2023-05-20T20:46:29.112Z,9.87
2023-05-20T20:48:56.128Z,10.43
2023-05-20T20:51:22.774Z,10.00
2023-05-20T20:53:49.810Z,10.60
2023-05-20T20:56:17.348Z,10.03
2023-05-20T20:58:44.788Z,10.90
2023-05-20T21:01:11.438Z,10.47
2023-05-20T21:03:39.917Z,10.43
2023-05-20T21:06:07.659Z,12.03
2023-05-20T21:08:34.775Z,13.60
2023-05-20T21:11:01.481Z,11.27
2023-05-20T21:13:29.801Z,11.37
2023-05-20T21:15:56.564Z,12.10
2023-05-20T21:18:24.047Z,11.37
2023-05-20T21:20:52.360Z,11.93
2023-05-20T21:23:19.660Z,12.17
2023-05-20T21:25:46.412Z,13.37
2023-05-20T21:28:13.396Z,12.37
2023-05-20T21:30:40.075Z,12.37
2023-05-20T21:33:06.818Z,12.13
2023-05-20T21:35:33.646Z,12.87
2023-05-20T21:38:00.348Z,15.07
2023-05-20T21:40:26.936Z,12.37
2023-05-20T21:42:53.540Z,12.27
2023-05-20T21:45:20.177Z,12.97
2023-05-20T21:47:46.867Z,13.43
2023-05-20T21:50:13.680Z,14.03
2023-05-20T21:52:40.476Z,15.97
2023-05-20T21:55:09.422Z,14.00
2023-05-20T21:57:36.321Z,14.73
2023-05-20T22:00:06.640Z,14.50
2023-05-20T22:02:33.273Z,14.57
2023-05-20T22:05:00.354Z,18.10
2023-05-20T22:07:26.993Z,14.77
2023-05-20T22:09:53.697Z,14.67
2023-05-20T22:12:20.561Z,17.83
2023-05-20T22:14:47.156Z,16.43
2023-05-20T22:17:13.741Z,16.80
2023-05-20T22:19:41.400Z,16.27
2023-05-20T22:22:08.194Z,15.53
2023-05-20T22:24:34.794Z,15.53
2023-05-20T22:27:01.639Z,17.10
2023-05-20T22:29:28.230Z,18.27
2023-05-20T22:31:54.839Z,17.30
2023-05-20T22:34:21.437Z,18.47
2023-05-20T22:36:48.963Z,17.53
2023-05-20T22:39:15.523Z,16.70
2023-05-20T22:41:42.203Z,18.60
2023-05-20T22:44:08.785Z,17.23
2023-05-20T22:46:35.664Z,23.27
2023-05-20T22:49:02.368Z,17.53
2023-05-20T22:51:28.962Z,18.83
2023-05-20T22:53:55.980Z,18.03
2023-05-20T22:56:23.495Z,22.27
2023-05-20T22:58:50.268Z,21.73
2023-05-20T23:01:17.250Z,18.40
2023-05-20T23:03:46.809Z,17.87
2023-05-20T23:06:13.371Z,21.77
2023-05-20T23:08:42.699Z,19.57
2023-05-20T23:11:09.243Z,21.73
2023-05-20T23:13:35.790Z,19.03
2023-05-20T23:16:02.395Z,21.90
2023-05-20T23:18:28.955Z,21.43
2023-05-20T23:20:55.763Z,24.70
2023-05-20T23:23:30.297Z,22.10
2023-05-20T23:25:58.063Z,23.23
2023-05-20T23:28:24.666Z,24.60
2023-05-20T23:30:51.766Z,26.53
2023-05-20T23:33:24.275Z,24.47
2023-05-20T23:35:51.959Z,20.93
2023-05-20T23:38:20.029Z,21.80
2023-05-20T23:40:47.197Z,22.87
2023-05-20T23:43:13.828Z,22.67
2023-05-20T23:45:40.543Z,25.80
2023-05-20T23:48:12.847Z,28.17
2023-05-20T23:50:40.472Z,25.77
2023-05-20T23:53:07.356Z,25.97
2023-05-20T23:55:34.054Z,23.17
2023-05-20T23:58:00.695Z,22.70
